Time;durP1;ratioP1;P1;durP2;ratioP2;P2;SDS_P1;SDS_P2;PMS_P1;PMS_P2;Temp;Humidity;BMP_temperature;BMP_pressure;BME280_temperature;BME280_humidity;BME280_pressure;Samples;Min_cycle;Max_cycle;Signal;HPM_P1;HPM_P2
2022/08/02 00:02:22;;;;;;;2.67;2.47;;;;;;;19.58;59.74;101058.47;5066541;28;20082;-27
2022/08/02 00:04:47;;;;;;;2.58;2.38;;;;;;;19.55;59.64;101063.94;5064466;28;20554;-27
2022/08/02 00:07:14;;;;;;;3.38;3.00;;;;;;;19.52;59.85;101064.06;5052858;28;20059;-27
2022/08/02 00:09:39;;;;;;;4.38;2.67;;;;;;;19.47;59.79;101061.56;5071280;28;20114;-27
2022/08/02 00:12:05;;;;;;;3.53;2.90;;;;;;;19.47;59.93;101064.25;5071393;28;20051;-27
2022/08/02 00:14:30;;;;;;;3.25;2.47;;;;;;;19.45;59.77;101053.63;5052973;28;20020;-27
2022/08/02 00:16:56;;;;;;;2.60;2.40;;;;;;;19.40;59.70;101060.09;5071679;28;20162;-27
2022/08/02 00:19:21;;;;;;;2.35;2.15;;;;;;;19.37;59.95;101058.41;5051722;28;20103;-27
2022/08/02 00:21:46;;;;;;;3.28;2.20;;;;;;;19.32;60.01;101063.06;5065241;28;20032;-27
2022/08/02 00:24:12;;;;;;;3.25;2.95;;;;;;;19.28;59.86;101059.66;5061893;28;20028;-27
2022/08/02 00:26:37;;;;;;;3.22;2.92;;;;;;;19.25;59.93;101065.13;5053289;28;20055;-27
2022/08/02 00:29:03;;;;;;;2.75;2.22;;;;;;;19.23;59.89;101064.28;5071221;28;20056;-27
2022/08/02 00:31:28;;;;;;;3.65;2.45;;;;;;;19.17;60.01;101053.88;5071434;28;20031;-27
2022/08/02 00:33:54;;;;;;;6.20;2.92;;;;;;;19.17;60.07;101064.56;5070357;28;20028;-27
2022/08/02 00:36:19;;;;;;;4.18;2.50;;;;;;;19.09;60.09;101054.16;5071099;28;20032;-27
2022/08/02 00:38:45;;;;;;;2.67;2.40;;;;;;;19.05;60.13;101061.41;5070731;28;20119;-27
2022/08/02 00:41:17;;;;;;;3.00;2.30;;;;;;;19.01;60.11;101059.78;5036429;28;20035;-27
2022/08/02 00:43:43;;;;;;;3.92;2.33;;;;;;;18.96;59.92;101059.94;5052059;28;20373;-27
2022/08/02 00:46:08;;;;;;;2.88;2.53;;;;;;;18.90;60.10;101065.50;5070296;28;20020;-27
2022/08/02 00:48:34;;;;;;;4.10;2.53;;;;;;;18.88;60.37;101069.19;5052534;28;20542;-27
2022/08/02 00:51:00;;;;;;;2.92;2.70;;;;;;;18.85;60.17;101064.81;5052393;28;20027;-27
2022/08/02 00:53:25;;;;;;;2.97;2.40;;;;;;;18.79;60.30;101070.38;5052300;28;20036;-27
2022/08/02 00:55:50;;;;;;;4.18;2.70;;;;;;;18.74;60.25;101075.91;5069433;28;20032;-27
2022/08/02 00:58:16;;;;;;;4.13;2.70;;;;;;;18.74;60.53;101077.72;5070417;28;20255;-27
2022/08/02 01:00:41;;;;;;;2.83;2.60;;;;;;;18.67;60.55;101077.09;5070452;28;20111;-27
2022/08/02 01:03:06;;;;;;;3.30;2.92;;;;;;;18.62;60.32;101081.69;5070812;28;20024;-27
2022/08/02 01:05:32;;;;;;;4.78;2.75;;;;;;;18.58;60.54;101079.13;5070492;28;20028;-27
2022/08/02 01:07:57;;;;;;;4.25;2.60;;;;;;;18.56;60.54;101085.47;5070465;28;20082;-27
2022/08/02 01:10:23;;;;;;;4.18;3.22;;;;;;;18.48;60.72;101088.44;5070317;28;20021;-27
2022/08/02 01:12:48;;;;;;;3.08;2.70;;;;;;;18.46;60.21;101087.59;5070499;28;20507;-27
2022/08/02 01:15:14;;;;;;;3.00;2.50;;;;;;;18.40;60.65;101086.00;5070086;28;20016;-27
2022/08/02 01:17:49;;;;;;;5.63;2.60;;;;;;;18.32;61.06;101094.31;5052787;28;20028;-27
2022/08/02 01:20:29;;;;;;;2.88;2.67;;;;;;;18.29;60.97;101090.84;5069397;28;20419;-27
2022/08/02 01:23:12;;;;;;;4.78;2.90;;;;;;;18.27;61.14;101090.06;5070273;28;20078;-27
2022/08/02 01:25:59;;;;;;;3.28;2.40;;;;;;;18.26;60.84;101094.50;5069867;28;20037;-27
2022/08/02 01:28:42;;;;;;;3.42;3.03;;;;;;;18.21;61.20;101092.00;5063828;28;20040;-28
2022/08/02 01:31:32;;;;;;;2.75;2.55;;;;;;;18.19;61.20;101087.66;5035278;28;20020;-27
2022/08/02 01:34:03;;;;;;;2.80;2.15;;;;;;;18.17;61.20;101086.84;5068477;28;20021;-27
2022/08/02 01:36:33;;;;;;;2.90;2.60;;;;;;;18.12;61.41;101087.00;5052104;28;20111;-27
2022/08/02 01:39:00;;;;;;;5.30;3.08;;;;;;;18.10;61.14;101087.97;5069017;28;20028;-27
2022/08/02 01:41:26;;;;;;;3.97;3.00;;;;;;;18.10;61.19;101079.97;5052048;28;20082;-27
2022/08/02 01:43:55;;;;;;;2.95;2.67;;;;;;;18.05;61.36;101083.63;5048581;28;20025;-27
2022/08/02 01:46:22;;;;;;;3.17;2.88;;;;;;;18.02;61.40;101075.72;5065470;28;20467;-27
2022/08/02 01:48:48;;;;;;;4.05;2.72;;;;;;;18.00;61.34;101082.91;5045170;28;20163;-27
2022/08/02 01:51:16;;;;;;;4.75;3.05;;;;;;;17.93;61.33;101076.91;5067440;28;20037;-27
2022/08/02 01:53:42;;;;;;;3.88;3.28;;;;;;;17.87;61.42;101082.44;5055811;28;20369;-27
2022/08/02 01:56:08;;;;;;;3.20;2.95;;;;;;;17.82;61.46;101085.28;5065475;28;20039;-27
2022/08/02 01:58:35;;;;;;;5.43;2.90;;;;;;;17.81;61.43;101086.19;5069896;28;20556;-27
2022/08/02 02:01:01;;;;;;;5.70;2.80;;;;;;;17.76;61.37;101087.25;5053367;28;20025;-27
2022/08/02 02:03:28;;;;;;;3.40;3.05;;;;;;;17.74;61.58;101087.31;5053641;28;20403;-27
2022/08/02 02:05:55;;;;;;;4.45;2.70;;;;;;;17.68;61.72;101090.19;5071963;28;20452;-27
2022/08/02 02:08:31;;;;;;;2.70;2.50;;;;;;;17.67;61.60;101096.41;5070827;28;20547;-27
2022/08/02 02:10:57;;;;;;;3.20;2.88;;;;;;;17.66;61.41;101100.00;5065480;28;20078;-27
2022/08/02 02:13:23;;;;;;;3.58;3.15;;;;;;;17.62;61.64;101093.94;5072919;28;20035;-27
2022/08/02 02:15:50;;;;;;;3.45;2.83;;;;;;;17.58;61.67;101097.63;5055656;28;20184;-27
2022/08/02 02:18:26;;;;;;;3.10;2.80;;;;;;;17.51;61.90;101088.06;5039166;28;20404;-27
2022/08/02 02:20:52;;;;;;;3.90;3.10;;;;;;;17.49;61.93;101095.22;5054623;28;20021;-27
2022/08/02 02:23:18;;;;;;;4.75;3.33;;;;;;;17.42;62.08;101097.22;5055434;28;20096;-27
2022/08/02 02:25:44;;;;;;;3.13;2.55;;;;;;;17.40;62.21;101096.38;5066797;28;20242;-27
2022/08/02 02:28:17;;;;;;;3.97;2.42;;;;;;;17.37;62.06;101094.69;5055461;28;20532;-27
2022/08/02 02:30:47;;;;;;;3.40;2.88;;;;;;;17.37;61.74;101092.00;5073570;28;20025;-27
2022/08/02 02:33:13;;;;;;;7.28;2.95;;;;;;;17.34;61.95;101100.09;5054473;28;20110;-27
2022/08/02 02:35:40;;;;;;;4.57;3.13;;;;;;;17.29;62.22;101102.94;5054824;28;20087;-27
2022/08/02 02:38:08;;;;;;;3.33;2.72;;;;;;;17.27;61.92;101110.09;5054999;28;20032;-27
2022/08/02 02:40:34;;;;;;;3.78;3.17;;;;;;;17.22;61.95;101120.03;5071766;28;20024;-28
2022/08/02 02:43:00;;;;;;;4.82;2.78;;;;;;;17.17;62.24;101113.94;5072148;28;20029;-27
2022/08/02 02:45:27;;;;;;;4.25;2.78;;;;;;;17.10;62.25;101118.59;5054643;28;20036;-27
2022/08/02 02:47:54;;;;;;;3.63;2.70;;;;;;;17.12;62.34;101118.53;5054365;28;20024;-27
2022/08/02 02:50:20;;;;;;;3.95;3.05;;;;;;;17.07;62.47;101117.81;5054478;28;20107;-27
2022/08/02 02:52:46;;;;;;;4.00;3.25;;;;;;;17.05;62.18;101110.72;5071773;28;20400;-27
2022/08/02 02:55:12;;;;;;;5.93;2.63;;;;;;;16.99;62.43;101110.88;5070349;28;20035;-27
2022/08/02 02:57:38;;;;;;;3.67;2.70;;;;;;;16.97;62.40;101104.72;5036773;28;20388;-27
2022/08/02 03:00:07;;;;;;;3.20;3.00;;;;;;;16.96;62.55;101110.97;5068128;28;20017;-27
2022/08/02 03:02:33;;;;;;;3.00;2.70;;;;;;;16.94;62.52;101118.13;5039255;28;20143;-27
2022/08/02 03:05:01;;;;;;;2.90;2.70;;;;;;;16.92;62.52;101119.97;5053545;28;20029;-27
2022/08/02 03:07:27;;;;;;;3.50;3.08;;;;;;;16.92;62.62;101117.31;5048378;28;20110;-27
2022/08/02 03:09:52;;;;;;;8.00;3.20;;;;;;;16.90;62.79;101128.00;5062602;28;20523;-27
2022/08/02 03:12:18;;;;;;;4.55;2.95;;;;;;;16.90;62.90;101127.13;5072495;28;20425;-27
2022/08/02 03:14:43;;;;;;;3.78;2.70;;;;;;;16.88;62.96;101118.31;5072595;28;20021;-27
2022/08/02 03:17:09;;;;;;;5.45;3.00;;;;;;;16.87;62.80;101121.91;5072634;28;20028;-27
2022/08/02 03:19:34;;;;;;;3.33;2.67;;;;;;;16.87;62.71;101111.25;5072136;28;20017;-27
2022/08/02 03:21:59;;;;;;;2.95;2.75;;;;;;;16.87;62.56;101121.91;5058313;28;20036;-27
2022/08/02 03:24:25;;;;;;;4.47;2.80;;;;;;;16.83;62.81;101121.09;5059379;28;20036;-27
2022/08/02 03:26:50;;;;;;;3.63;2.67;;;;;;;16.84;63.03;101119.31;5052617;28;20507;-27
2022/08/02 03:29:15;;;;;;;4.13;2.70;;;;;;;16.79;62.91;101120.31;5050730;28;20502;-28
2022/08/02 03:31:45;;;;;;;4.38;2.90;;;;;;;16.79;62.71;101120.31;5066917;28;20423;-27
2022/08/02 03:34:10;;;;;;;4.13;2.80;;;;;;;16.78;62.85;101118.56;5065756;28;20439;-27
2022/08/02 03:36:36;;;;;;;4.88;2.70;;;;;;;16.76;62.97;101120.41;5060400;28;20085;-27
2022/08/02 03:39:02;;;;;;;3.22;2.60;;;;;;;16.72;63.08;101115.19;5046144;28;20023;-27
2022/08/02 03:41:28;;;;;;;3.05;2.78;;;;;;;16.70;63.22;101120.56;5045669;28;20081;-27
2022/08/02 03:43:54;;;;;;;4.03;2.63;;;;;;;16.69;63.17;101118.81;5065664;28;20107;-27
2022/08/02 03:46:22;;;;;;;3.35;2.70;;;;;;;16.71;62.82;101126.78;5053636;28;20066;-27
2022/08/02 03:48:48;;;;;;;5.53;3.00;;;;;;;16.66;63.12;101124.22;5054234;28;20058;-27
2022/08/02 03:51:14;;;;;;;4.82;3.05;;;;;;;16.69;62.96;101121.50;5053223;28;20085;-27
2022/08/02 03:53:39;;;;;;;5.53;2.95;;;;;;;16.67;63.11;101123.31;5071607;28;20028;-27
2022/08/02 03:56:05;;;;;;;3.78;2.60;;;;;;;16.65;63.01;101120.72;5068165;28;20055;-27
2022/08/02 03:58:30;;;;;;;4.28;2.97;;;;;;;16.62;63.09;101120.78;5071041;28;20032;-27
2022/08/02 04:00:56;;;;;;;3.75;2.80;;;;;;;16.61;63.21;101126.16;5071451;28;20036;-27
2022/08/02 04:03:22;;;;;;;5.25;3.05;;;;;;;16.61;63.11;101134.16;5053663;28;20020;-27
2022/08/02 04:05:48;;;;;;;3.03;2.72;;;;;;;16.58;63.47;101131.56;5052992;28;20036;-27
2022/08/02 04:08:13;;;;;;;4.13;2.58;;;;;;;16.57;63.25;101138.66;5053836;28;20473;-27
2022/08/02 04:13:26;;;;;;;6.20;3.53;;;;;;;16.58;63.67;101140.44;5064400;28;20063;-27
2022/08/02 04:15:55;;;;;;;2.78;2.58;;;;;;;16.60;63.34;101140.41;5050686;28;20032;-27
2022/08/02 04:18:24;;;;;;;3.25;2.80;;;;;;;16.58;63.52;101140.44;5067699;28;20119;-27
2022/08/02 04:20:50;;;;;;;3.38;3.10;;;;;;;16.56;63.60;101150.25;5070283;28;20023;-27
2022/08/02 04:23:16;;;;;;;4.65;2.88;;;;;;;16.57;63.42;101151.97;5065688;28;20028;-27
2022/08/02 04:25:43;;;;;;;3.70;3.30;;;;;;;16.57;63.58;101151.13;5066952;28;20028;-27
2022/08/02 04:28:08;;;;;;;3.92;2.90;;;;;;;16.57;63.54;101156.44;5041701;28;20021;-27
2022/08/02 04:30:35;;;;;;;2.80;2.60;;;;;;;16.53;63.76;101140.56;5059336;28;20022;-27
2022/08/02 04:33:01;;;;;;;3.05;2.78;;;;;;;16.55;63.46;101146.69;5070337;28;20036;-28
2022/08/02 04:35:26;;;;;;;4.32;3.05;;;;;;;16.58;63.50;101152.88;5056701;28;20416;-27
2022/08/02 04:37:53;;;;;;;2.80;2.60;;;;;;;16.54;63.72;101152.94;5046940;28;20147;-27
2022/08/02 04:40:18;;;;;;;3.83;3.42;;;;;;;16.58;63.27;101158.19;5063183;28;20066;-27
2022/08/02 04:42:43;;;;;;;4.18;2.92;;;;;;;16.57;63.91;101148.47;5067747;28;20492;-27
2022/08/02 04:45:09;;;;;;;3.28;2.97;;;;;;;16.57;63.60;101143.13;5069708;28;20506;-27
2022/08/02 04:47:35;;;;;;;5.43;3.28;;;;;;;16.59;63.75;101133.31;5060008;28;20505;-27
2022/08/02 04:50:00;;;;;;;4.40;2.92;;;;;;;16.61;63.97;101131.47;5062357;28;20498;-27
2022/08/02 04:52:26;;;;;;;3.03;2.75;;;;;;;16.64;63.86;101139.41;5068044;28;20404;-27
2022/08/02 04:54:52;;;;;;;4.10;3.03;;;;;;;16.67;63.78;101141.94;5063875;28;20114;-27
2022/08/02 05:00:07;;;;;;;2.90;2.70;;;;;;;16.70;63.80;101151.66;5070151;28;20031;-27
2022/08/02 05:02:32;;;;;;;4.50;3.08;;;;;;;16.72;63.95;101150.72;5041295;28;20107;-27
2022/08/02 05:04:57;;;;;;;3.35;3.05;;;;;;;16.77;63.85;101156.78;5069136;28;20135;-27
2022/08/02 05:07:23;;;;;;;3.88;3.22;;;;;;;16.78;63.77;101153.19;5054435;28;20024;-27
2022/08/02 05:09:48;;;;;;;5.53;3.30;;;;;;;16.80;64.17;101148.69;5050259;28;20112;-27
2022/08/02 05:12:13;;;;;;;4.38;2.97;;;;;;;16.85;64.49;101161.00;5066616;28;20067;-27
2022/08/02 05:14:39;;;;;;;5.20;2.80;;;;;;;16.87;64.48;101160.06;5057370;28;20041;-27
2022/08/02 05:17:04;;;;;;;4.75;3.50;;;;;;;16.93;64.13;101165.22;5052651;28;20021;-27
2022/08/02 05:19:29;;;;;;;4.80;2.92;;;;;;;16.95;64.29;101162.50;5052902;28;20017;-27
2022/08/02 05:21:55;;;;;;;3.92;3.45;;;;;;;16.96;64.12;101166.91;5071857;28;20411;-27
2022/08/02 05:24:20;;;;;;;4.38;3.47;;;;;;;17.01;64.21;101178.31;5071265;28;20077;-27
2022/08/02 05:26:46;;;;;;;4.07;2.78;;;;;;;17.03;64.04;101171.16;5070542;28;20404;-27
2022/08/02 05:29:11;;;;;;;3.88;2.97;;;;;;;17.05;64.14;101173.78;5070860;28;20036;-27
2022/08/02 05:31:36;;;;;;;6.05;3.15;;;;;;;17.09;64.05;101174.59;5069617;28;20028;-27
2022/08/02 05:34:02;;;;;;;6.68;3.45;;;;;;;17.12;64.03;101180.72;5070716;28;20052;-27
2022/08/02 05:36:27;;;;;;;4.57;2.95;;;;;;;17.17;63.79;101181.44;5072158;28;20016;-28
2022/08/02 05:38:52;;;;;;;4.35;3.28;;;;;;;17.24;63.68;101181.28;5071595;28;20169;-26
2022/08/02 05:41:18;;;;;;;3.83;3.22;;;;;;;17.27;63.41;101168.72;5056290;28;20469;-27
2022/08/02 05:43:45;;;;;;;5.85;3.47;;;;;;;17.27;63.56;101170.53;5072668;28;20024;-27
2022/08/02 05:46:10;;;;;;;4.55;3.25;;;;;;;17.31;63.67;101174.88;5053663;28;20024;-27
2022/08/02 05:48:35;;;;;;;4.45;3.45;;;;;;;17.35;63.64;101172.97;5068461;28;20032;-28
2022/08/02 05:51:08;;;;;;;5.80;2.92;;;;;;;17.40;63.57;101173.69;5074303;28;20036;-27
2022/08/02 05:53:44;;;;;;;3.38;2.85;;;;;;;17.43;63.64;101174.50;5072748;28;20027;-27
2022/08/02 05:56:33;;;;;;;4.30;3.33;;;;;;;17.52;63.60;101184.00;5034269;28;20036;-27
2022/08/02 05:59:31;;;;;;;3.42;2.75;;;;;;;17.56;63.21;101179.44;5070880;28;20067;-27
2022/08/02 06:02:02;;;;;;;3.58;3.28;;;;;;;17.68;62.93;101186.22;5068347;28;20024;-27
2022/08/02 06:04:45;;;;;;;5.55;3.58;;;;;;;17.76;63.03;101178.84;5044493;28;20111;-27
2022/08/02 06:07:11;;;;;;;4.93;2.92;;;;;;;17.83;62.97;101180.38;5073416;28;20077;-27
2022/08/02 06:09:37;;;;;;;3.75;3.17;;;;;;;17.88;62.88;101174.03;5051707;28;20431;-27
2022/08/02 06:12:04;;;;;;;7.80;3.35;;;;;;;17.94;62.84;101176.53;5060462;28;20020;-27
2022/08/02 06:14:32;;;;;;;4.38;3.00;;;;;;;18.00;63.22;101178.97;5075472;28;20028;-27
2022/08/02 06:17:02;;;;;;;3.58;2.78;;;;;;;18.05;63.13;101177.03;5077182;28;20024;-27
2022/08/02 06:19:27;;;;;;;4.43;3.33;;;;;;;18.12;62.76;101184.88;5056023;28;20020;-27
2022/08/02 06:21:53;;;;;;;5.03;3.17;;;;;;;18.17;62.80;101181.13;5055166;28;20369;-27
2022/08/02 06:24:18;;;;;;;5.93;3.10;;;;;;;18.23;62.46;101182.72;5052973;28;20146;-27
2022/08/02 06:26:44;;;;;;;5.65;3.10;;;;;;;18.27;62.28;101176.34;5072004;28;20492;-27
2022/08/02 06:29:11;;;;;;;4.00;2.95;;;;;;;18.34;62.33;101182.34;5071783;28;20151;-27
2022/08/02 06:31:37;;;;;;;2.92;2.72;;;;;;;18.38;62.23;101184.00;5037832;28;20020;-27
2022/08/02 06:34:02;;;;;;;5.03;2.97;;;;;;;18.42;61.91;101180.31;5054414;28;20035;-27
2022/08/02 06:36:37;;;;;;;3.75;2.38;;;;;;;18.49;61.96;101190.75;5071771;28;20074;-27
2022/08/02 06:39:22;;;;;;;3.85;2.85;;;;;;;18.54;61.84;101189.69;5070034;28;20024;-27
2022/08/02 06:41:48;;;;;;;5.40;3.28;;;;;;;18.61;61.48;101184.13;5069073;28;20036;-27
2022/08/02 06:44:14;;;;;;;7.43;3.40;;;;;;;18.68;61.26;101174.97;5052067;28;20116;-27
2022/08/02 06:46:39;;;;;;;7.57;2.85;;;;;;;18.76;61.15;101180.94;5052789;28;20107;-27
2022/08/02 06:49:04;;;;;;;7.45;2.70;;;;;;;18.86;61.42;101192.16;5073280;28;20029;-27
2022/08/02 06:51:30;;;;;;;4.75;2.85;;;;;;;18.91;60.93;101186.66;5073001;28;20063;-27
2022/08/02 06:53:55;;;;;;;4.65;2.40;;;;;;;18.96;61.08;101176.66;5037272;28;20040;-27
2022/08/02 06:56:21;;;;;;;2.72;2.30;;;;;;;19.05;60.94;101186.16;5052176;28;20025;-27
2022/08/02 06:58:46;;;;;;;3.13;2.40;;;;;;;19.10;60.44;101177.06;5066390;28;20021;-27
2022/08/02 07:01:12;;;;;;;4.07;2.60;;;;;;;19.19;60.37;101164.28;5061836;28;20103;-27
2022/08/02 07:03:39;;;;;;;5.20;2.70;;;;;;;19.27;60.31;101166.66;5069183;28;20028;-27
2022/08/02 07:06:08;;;;;;;2.58;2.38;;;;;;;19.34;60.46;101158.34;5071960;28;20073;-27
2022/08/02 07:08:37;;;;;;;2.80;2.60;;;;;;;19.40;60.34;101165.25;5041898;28;20054;-27
2022/08/02 07:11:05;;;;;;;3.50;2.50;;;;;;;19.51;60.03;101172.00;5054497;28;20120;-27
2022/08/02 07:13:30;;;;;;;3.65;2.85;;;;;;;19.56;59.65;101161.97;5065181;28;20448;-27
2022/08/02 07:15:56;;;;;;;3.00;2.20;;;;;;;19.63;59.24;101173.34;5064729;28;20109;-28
2022/08/02 07:18:22;;;;;;;3.08;2.33;;;;;;;19.74;59.63;101171.09;5065981;28;20119;-27
2022/08/02 07:20:48;;;;;;;4.78;2.60;;;;;;;19.83;59.62;101160.03;5068806;28;20043;-27
2022/08/02 07:23:13;;;;;;;3.95;2.47;;;;;;;19.96;59.49;101164.88;5068234;28;20060;-28
2022/08/02 07:25:39;;;;;;;4.10;2.63;;;;;;;20.03;59.19;101155.69;5067045;28;20499;-27
2022/08/02 07:28:05;;;;;;;3.00;2.30;;;;;;;20.15;59.08;101164.13;5066324;28;20148;-27
2022/08/02 07:30:31;;;;;;;3.92;2.30;;;;;;;20.23;58.41;101156.66;5066168;28;20382;-27
2022/08/02 07:32:58;;;;;;;4.32;2.67;;;;;;;20.33;58.82;101157.13;5069679;28;20452;-27
2022/08/02 07:35:24;;;;;;;2.83;2.22;;;;;;;20.46;58.74;101158.34;5067454;28;20173;-27
2022/08/02 07:37:49;;;;;;;3.47;2.38;;;;;;;20.58;58.51;101161.44;5048325;28;20111;-27
2022/08/02 07:40:15;;;;;;;3.42;2.60;;;;;;;20.69;58.78;101164.53;5069359;28;20025;-27
2022/08/02 07:42:44;;;;;;;3.42;2.33;;;;;;;20.81;58.49;101156.88;5062049;28;20027;-27
2022/08/02 07:45:10;;;;;;;4.22;2.20;;;;;;;21.00;57.83;101163.19;5066146;28;20040;-27
2022/08/02 07:47:37;;;;;;;5.07;2.53;;;;;;;21.06;57.42;101164.72;5070493;28;20074;-27
2022/08/02 07:50:04;;;;;;;4.40;2.38;;;;;;;21.14;57.76;101162.53;5066804;28;20400;-27
2022/08/02 07:52:29;;;;;;;4.07;2.58;;;;;;;21.27;57.64;101164.66;5063720;28;20412;-27
2022/08/02 07:54:55;;;;;;;5.80;2.90;;;;;;;21.73;56.57;101152.66;5082684;22;20484;-28
2022/08/02 07:57:20;;;;;;;4.78;2.40;;;;;;;21.78;56.35;101137.25;5066363;28;20472;-28
2022/08/02 07:59:46;;;;;;;4.05;2.20;;;;;;;21.80;56.19;101146.09;5050952;28;20468;-28
2022/08/02 08:02:13;;;;;;;6.65;2.45;;;;;;;21.86;56.24;101147.59;5057758;28;20027;-28
2022/08/02 08:04:39;;;;;;;2.50;2.10;;;;;;;21.94;56.12;101156.13;5071884;28;20069;-28
2022/08/02 08:07:05;;;;;;;7.82;2.30;;;;;;;22.03;56.54;101157.50;5072109;28;20080;-28
2022/08/02 08:09:30;;;;;;;5.15;2.60;;;;;;;22.14;56.00;101148.91;5053209;28;20115;-28
2022/08/02 08:11:55;;;;;;;6.22;2.72;;;;;;;22.24;55.58;101144.78;5067303;28;20528;-28
2022/08/02 08:14:21;;;;;;;4.68;2.33;;;;;;;22.36;55.31;101137.94;5070701;28;20542;-28
2022/08/02 08:16:46;;;;;;;4.60;2.58;;;;;;;22.41;54.76;101138.56;5062977;28;20521;-28
2022/08/02 08:19:11;;;;;;;3.67;2.55;;;;;;;22.59;55.22;101133.22;5061291;28;20029;-28
2022/08/02 08:21:37;;;;;;;3.70;2.70;;;;;;;22.76;54.80;101139.50;5062540;28;20447;-28
2022/08/02 08:24:03;;;;;;;4.22;2.22;;;;;;;22.85;54.64;101133.66;5061074;28;20037;-28
2022/08/02 08:26:28;;;;;;;4.03;2.10;;;;;;;22.98;54.76;101135.66;5065339;28;20059;-27
2022/08/02 08:28:54;;;;;;;3.97;2.30;;;;;;;23.15;55.04;101127.56;5063358;28;20400;-28
2022/08/02 08:31:19;;;;;;;3.97;2.35;;;;;;;23.29;54.41;101132.16;5068013;28;20043;-27
2022/08/02 08:33:44;;;;;;;3.50;2.42;;;;;;;23.38;53.87;101133.50;5069650;28;20040;-27
2022/08/02 08:36:10;;;;;;;4.82;2.25;;;;;;;23.58;54.03;101126.13;5050274;28;20388;-28
2022/08/02 08:38:35;;;;;;;5.78;2.25;;;;;;;23.76;54.31;101115.22;5064715;28;20108;-27
2022/08/02 08:41:01;;;;;;;6.05;2.22;;;;;;;23.88;53.08;101117.22;5066921;28;20579;-28
2022/08/02 08:43:26;;;;;;;5.78;2.10;;;;;;;23.99;53.16;101113.88;5064448;28;20030;-28
2022/08/02 08:45:51;;;;;;;5.28;2.25;;;;;;;24.14;53.19;101100.50;5068788;28;20028;-28
2022/08/02 08:48:17;;;;;;;3.33;2.13;;;;;;;24.31;53.44;101105.72;5071559;28;20021;-28
2022/08/02 08:50:56;;;;;;;5.43;1.80;;;;;;;24.40;53.22;101095.34;5069813;28;20020;-28
2022/08/02 08:53:23;;;;;;;2.80;1.90;;;;;;;24.53;52.44;101100.84;5058346;28;20024;-28
2022/08/02 08:55:51;;;;;;;3.13;2.00;;;;;;;24.64;52.28;101102.88;5060756;28;20066;-28
2022/08/02 08:58:17;;;;;;;3.75;2.22;;;;;;;24.69;51.55;101101.63;5060575;28;20388;-28
2022/08/02 09:00:42;;;;;;;4.85;2.17;;;;;;;24.76;52.00;101095.84;5052260;28;20095;-27
2022/08/02 09:03:08;;;;;;;1.92;1.80;;;;;;;24.85;52.06;101095.28;5050899;28;20480;-28
2022/08/02 09:05:35;;;;;;;4.55;2.25;;;;;;;25.03;52.02;101097.78;5067541;28;20391;-28
2022/08/02 09:08:00;;;;;;;3.35;1.92;;;;;;;25.17;52.06;101099.63;5071229;28;20024;-28
2022/08/02 09:10:37;;;;;;;2.63;1.92;;;;;;;25.29;51.69;101106.03;5073427;28;20136;-28
2022/08/02 09:13:28;;;;;;;5.63;2.17;;;;;;;25.52;51.52;101100.97;5069877;28;20031;-27
2022/08/02 09:15:59;;;;;;;4.28;2.42;;;;;;;25.50;50.84;101083.03;5069174;28;20017;-27
2022/08/02 09:18:30;;;;;;;;;;;;;;;25.65;51.89;101091.13;5075634;28;20039;-27
2022/08/02 09:20:58;;;;;;;2.40;1.90;;;;;;;25.65;51.08;101096.53;5080214;28;19916;-28
2022/08/02 09:23:25;;;;;;;3.28;2.40;;;;;;;25.70;50.75;101091.69;5054389;28;20024;-27
2022/08/02 09:25:59;;;;;;;2.45;1.98;;;;;;;25.84;50.82;101089.91;5074545;28;20396;-27
2022/08/02 09:28:31;;;;;;;2.63;2.10;;;;;;;25.99;50.50;101096.09;5074192;28;20055;-27
2022/08/02 09:31:03;;;;;;;;;;;;;;;26.09;50.85;101090.91;5077128;28;20119;-27
2022/08/02 09:33:29;;;;;;;2.75;2.50;;;;;;;26.26;51.49;101084.34;5064940;28;20012;-28
2022/08/02 09:36:02;;;;;;;4.15;2.50;;;;;;;26.26;50.40;101074.41;5068369;28;20454;-27
2022/08/02 09:38:28;;;;;;;3.40;2.08;;;;;;;26.29;50.07;101077.88;5068216;28;20086;-28
2022/08/02 09:40:54;;;;;;;2.05;1.77;;;;;;;26.38;49.85;101082.66;5067370;28;20020;-28
2022/08/02 09:43:19;;;;;;;2.17;1.98;;;;;;;26.61;50.55;101088.28;5060973;28;20032;-28
2022/08/02 09:45:45;;;;;;;4.03;2.00;;;;;;;26.85;48.72;101103.72;5074478;28;20020;-28
2022/08/02 09:48:11;;;;;;;5.57;2.40;;;;;;;26.78;49.03;101095.19;5070536;28;20043;-27
2022/08/02 09:50:38;;;;;;;3.45;1.85;;;;;;;26.79;49.21;101088.81;5062767;28;20040;-28
2022/08/02 09:53:05;;;;;;;3.35;2.30;;;;;;;26.90;49.75;101085.31;5072425;28;20491;-27
2022/08/02 09:55:30;;;;;;;2.72;1.98;;;;;;;27.05;49.74;101080.69;5063733;28;20029;-27
2022/08/02 09:57:56;;;;;;;5.47;2.40;;;;;;;27.21;48.53;101083.09;5057058;28;20392;-27
2022/08/02 10:00:22;;;;;;;6.80;2.00;;;;;;;27.35;48.27;101081.22;5068076;28;20079;-28
2022/08/02 10:03:10;;;;;;;2.75;1.85;;;;;;;27.36;48.33;101070.28;5054142;28;20031;-28
2022/08/02 10:06:03;;;;;;;3.92;2.45;;;;;;;27.42;48.33;101087.91;5070857;28;20032;-27
2022/08/02 10:08:29;;;;;;;2.22;1.73;;;;;;;27.46;47.63;101081.28;5069298;28;20523;-27
2022/08/02 10:11:02;;;;;;;3.13;1.85;;;;;;;27.56;47.48;101067.03;5077899;28;20043;-27
2022/08/02 10:13:31;;;;;;;2.90;2.00;;;;;;;27.65;46.52;101075.38;5056506;28;20631;-28
2022/08/02 10:15:56;;;;;;;2.08;1.92;;;;;;;27.65;47.13;101069.94;5073788;28;20146;-27
2022/08/02 10:18:22;;;;;;;5.55;1.90;;;;;;;27.60;47.53;101068.53;5067238;28;20560;-27
2022/08/02 10:20:49;;;;;;;2.65;2.20;;;;;;;27.61;46.88;101068.44;5073566;28;20035;-27
2022/08/02 10:23:15;;;;;;;2.22;1.63;;;;;;;27.73;47.26;101055.84;5058078;28;20476;-27
2022/08/02 10:25:41;;;;;;;2.58;1.90;;;;;;;27.85;47.66;101054.03;5073217;28;20538;-28
2022/08/02 10:28:07;;;;;;;2.65;1.90;;;;;;;27.83;46.51;101057.81;5037624;28;20027;-28
2022/08/02 10:30:35;;;;;;;2.17;1.40;;;;;;;27.88;46.51;101045.66;5053835;28;20036;-27
2022/08/02 10:33:01;;;;;;;2.92;2.00;;;;;;;28.08;47.17;101035.13;5047792;28;20032;-27
2022/08/02 10:35:28;;;;;;;2.78;2.00;;;;;;;28.28;46.45;101041.69;5046555;28;20032;-28
2022/08/02 10:37:57;;;;;;;4.38;2.35;;;;;;;28.26;46.41;101029.22;5047299;28;20028;-27
2022/08/02 10:40:25;;;;;;;3.87;2.13;;;;;;;28.30;45.78;101028.03;5047679;28;20024;-27
2022/08/02 10:42:59;;;;;;;5.82;1.95;;;;;;;28.33;45.53;101021.50;5049192;28;20020;-28
2022/08/02 10:45:25;;;;;;;3.58;1.90;;;;;;;28.60;44.10;101023.00;5068825;28;20484;-28
2022/08/02 10:47:57;;;;;;;3.33;2.00;;;;;;;28.73;42.86;101020.13;5073103;28;20032;-28
2022/08/02 10:50:49;;;;;;;3.60;1.90;;;;;;;28.71;43.64;101020.28;5055346;28;20496;-28
2022/08/02 10:53:22;;;;;;;2.53;1.77;;;;;;;28.73;42.84;101030.97;5072397;28;20066;-28
2022/08/02 10:55:48;;;;;;;3.97;1.88;;;;;;;28.82;41.99;101030.25;5072542;28;20021;-28
2022/08/02 10:58:22;;;;;;;3.65;2.03;;;;;;;28.89;42.30;101028.75;5055283;28;20021;-28
2022/08/02 11:00:48;;;;;;;2.25;1.75;;;;;;;28.91;42.49;101025.94;5055417;28;20099;-28
2022/08/02 11:03:38;;;;;;;2.67;2.15;;;;;;;28.94;42.68;101026.56;5072240;28;20070;-27
2022/08/02 11:06:09;;;;;;;2.85;1.92;;;;;;;28.90;42.84;101016.91;5054275;28;20029;-28
2022/08/02 11:08:34;;;;;;;3.00;2.25;;;;;;;28.90;42.66;101005.19;5067495;28;20052;-27
2022/08/02 11:11:15;;;;;;;2.88;1.90;;;;;;;29.01;43.23;101012.50;5047539;28;20112;-28
2022/08/02 11:13:58;;;;;;;2.70;2.05;;;;;;;29.13;43.30;101016.91;5060951;28;20029;-27
2022/08/02 11:16:56;;;;;;;4.72;2.20;;;;;;;29.21;42.50;101008.13;5056910;28;20060;-27
2022/08/02 11:19:25;;;;;;;2.03;1.77;;;;;;;29.35;42.80;101009.66;5075757;28;20299;-28
2022/08/02 11:22:05;;;;;;;3.83;1.88;;;;;;;29.35;41.50;101008.81;5070793;28;20113;-28
2022/08/02 11:24:34;;;;;;;2.50;2.13;;;;;;;29.43;40.91;101009.00;5070494;28;20020;-28
2022/08/02 11:27:01;;;;;;;2.83;1.92;;;;;;;29.56;40.70;101001.59;5070180;28;20117;-28
2022/08/02 11:29:42;;;;;;;3.95;2.10;;;;;;;29.62;40.05;101002.91;5071253;28;20032;-28
2022/08/02 11:32:19;;;;;;;1.77;1.67;;;;;;;29.68;41.15;101009.69;5045293;28;20036;-28
2022/08/02 11:34:46;;;;;;;2.17;1.58;;;;;;;29.69;40.52;101006.84;5058846;28;20070;-28
2022/08/02 11:37:11;;;;;;;4.10;2.17;;;;;;;29.77;40.51;101003.44;5035781;28;20480;-28